TimeEST,TemperatureF,Dew PointF,Humidity,Sea Level PressureIn,VisibilityMPH,Wind Direction,Wind SpeedMPH,Gust SpeedMPH,PrecipitationIn,Events,Conditions,WindDirDegrees,DateUTC
12:15 AM,53.1,44.2,72,29.80,10.0,WNW,8.1,-,N/A,,Overcast,300,2013-02-26 05:15:00
12:35 AM,53.6,44.4,71,29.80,10.0,SSE,6.9,-,N/A,,Overcast,160,2013-02-26 05:35:00
12:55 AM,52.7,44.6,74,29.78,10.0,East,9.2,-,N/A,Rain,Light Rain,100,2013-02-26 05:55:00
1:15 AM,52.7,44.4,73,29.77,10.0,North,4.6,18.4,N/A,,Overcast,360,2013-02-26 06:15:00
1:35 AM,54.1,46.0,74,29.77,10.0,SE,6.9,21.9,N/A,Rain,Rain,140,2013-02-26 06:35:00
1:55 AM,52.7,46.2,79,29.75,7.0,East,12.7,24.2,N/A,Rain,Rain,100,2013-02-26 06:55:00
2:15 AM,53.1,46.8,79,29.74,7.0,SE,12.7,21.9,0.04,Rain,Light Rain,140,2013-02-26 07:15:00
2:35 AM,53.1,47.8,82,29.74,5.0,ESE,4.6,21.9,0.11,Rain,Rain,120,2013-02-26 07:35:00
2:55 AM,52.2,47.5,84,29.73,5.0,SSW,6.9,-,0.15,Rain,Rain,200,2013-02-26 07:55:00
3:15 AM,51.6,46.4,82,29.73,7.0,West,9.2,19.6,0.07,Rain,Rain,260,2013-02-26 08:15:00
3:35 AM,51.1,45.7,82,29.73,7.0,East,9.2,-,0.11,Rain,Rain,90,2013-02-26 08:35:00
3:55 AM,50.9,45.5,82,29.74,7.0,NW,4.6,-,0.17,Rain,Rain,320,2013-02-26 08:55:00
4:15 AM,50.0,45.9,86,29.72,7.0,NNW,3.5,-,0.04,Rain,Rain,330,2013-02-26 09:15:00
4:35 AM,48.2,46.4,93,29.68,7.0,Calm,Calm,-,0.10,Rain,Rain,0,2013-02-26 09:35:00
4:55 AM,48.2,47.1,96,29.64,10.0,Calm,Calm,-,0.12,Rain,Light Rain,0,2013-02-26 09:55:00
5:15 AM,48.0,47.1,97,29.64,10.0,Calm,Calm,-,N/A,Rain,Light Rain,0,2013-02-26 10:15:00
5:35 AM,47.7,46.9,97,29.63,4.0,Calm,Calm,-,N/A,Rain,Heavy Rain,0,2013-02-26 10:35:00
5:55 AM,47.8,47.3,98,29.62,10.0,West,6.9,-,0.02,Rain,Rain,270,2013-02-26 10:55:00
6:15 AM,48.7,47.3,95,29.62,10.0,West,11.5,-,0.01,Rain,Heavy Rain,270,2013-02-26 11:15:00
6:35 AM,51.6,47.5,86,29.60,5.0,NNE,5.8,-,0.02,Rain,Rain,30,2013-02-26 11:35:00
6:55 AM,51.4,47.7,87,29.58,10.0,NNW,8.1,-,0.04,Rain,Light Rain,340,2013-02-26 11:55:00
7:15 AM,54.7,47.8,78,29.57,10.0,ESE,12.7,27.6,0.01,Rain,Light Rain,120,2013-02-26 12:15:00
7:35 AM,54.1,47.7,79,29.57,7.0,SE,12.7,28.8,0.04,Rain,Rain,130,2013-02-26 12:35:00
7:55 AM,53.6,46.0,76,29.57,10.0,South,5.8,32.2,0.05,Rain,Light Rain,170,2013-02-26 12:55:00
8:15 AM,53.4,45.9,76,29.56,10.0,SE,13.8,25.3,N/A,,Light Drizzle,140,2013-02-26 13:15:00
8:35 AM,54.5,45.3,71,29.55,10.0,South,9.2,34.5,N/A,,Mostly Cloudy,180,2013-02-26 13:35:00
8:55 AM,55.9,46.6,71,29.52,10.0,South,9.2,24.2,N/A,,Scattered Clouds,190,2013-02-26 13:55:00
9:15 AM,57.2,46.0,66,29.51,10.0,SE,16.1,36.8,N/A,,Clear,140,2013-02-26 14:15:00
9:35 AM,57.6,46.6,67,29.50,10.0,ESE,17.3,35.7,N/A,,Clear,120,2013-02-26 14:35:00
9:55 AM,58.3,47.5,67,29.54,10.0,West,24.2,28.8,N/A,,Clear,260,2013-02-26 14:55:00
10:15 AM,53.1,45.7,76,29.55,10.0,South,9.2,28.8,N/A,Rain,Rain,190,2013-02-26 15:15:00
10:35 AM,54.1,46.4,75,29.55,10.0,SSE,11.5,26.5,N/A,,Overcast,160,2013-02-26 15:35:00
10:55 AM,54.7,45.3,71,29.53,10.0,SE,8.1,18.4,N/A,,Mostly Cloudy,140,2013-02-26 15:55:00
11:15 AM,55.8,45.5,68,29.53,10.0,South,18.4,31.1,N/A,,Scattered Clouds,170,2013-02-26 16:15:00
11:35 AM,55.2,45.5,70,29.54,10.0,SSE,13.8,32.2,N/A,,Mostly Cloudy,150,2013-02-26 16:35:00
11:55 AM,55.4,45.1,68,29.54,10.0,SSE,12.7,26.5,N/A,,Mostly Cloudy,160,2013-02-26 16:55:00
12:15 PM,56.1,46.0,69,29.54,10.0,South,10.4,19.6,N/A,,Scattered Clouds,170,2013-02-26 17:15:00
12:35 PM,55.2,45.0,68,29.53,10.0,SSW,10.4,21.9,N/A,,Mostly Cloudy,200,2013-02-26 17:35:00
12:55 PM,57.0,46.6,68,29.53,10.0,SSW,13.8,17.3,N/A,,Mostly Cloudy,210,2013-02-26 17:55:00
1:15 PM,54.9,44.8,69,29.53,10.0,SSW,12.7,18.4,N/A,,Overcast,210,2013-02-26 18:15:00
1:35 PM,52.7,43.5,71,29.53,10.0,SSW,6.9,-,N/A,,Overcast,200,2013-02-26 18:35:00
1:55 PM,52.5,43.7,72,29.53,10.0,SSW,8.1,-,N/A,,Overcast,210,2013-02-26 18:55:00
2:15 PM,51.8,43.9,74,29.54,10.0,SSW,6.9,-,N/A,,Overcast,200,2013-02-26 19:15:00
2:35 PM,51.8,43.5,73,29.55,10.0,South,9.2,-,N/A,,Overcast,180,2013-02-26 19:35:00
2:55 PM,52.2,42.6,70,29.54,10.0,SSW,11.5,25.3,N/A,,Overcast,210,2013-02-26 19:55:00
3:15 PM,51.3,41.5,69,29.55,10.0,SW,11.5,20.7,N/A,,Overcast,220,2013-02-26 20:15:00
3:35 PM,51.8,41.0,67,29.54,10.0,SSW,11.5,16.1,N/A,,Overcast,200,2013-02-26 20:35:00
3:55 PM,51.3,39.4,64,29.54,10.0,SW,10.4,21.9,N/A,,Overcast,220,2013-02-26 20:55:00
4:15 PM,50.2,39.4,66,29.54,10.0,SW,12.7,17.3,N/A,,Overcast,220,2013-02-26 21:15:00
4:35 PM,49.5,39.4,68,29.55,10.0,SW,9.2,16.1,N/A,,Overcast,230,2013-02-26 21:35:00
4:55 PM,49.1,39.4,69,29.55,10.0,SW,10.4,16.1,N/A,,Overcast,230,2013-02-26 21:55:00
5:15 PM,48.2,40.5,75,29.56,10.0,SW,10.4,19.6,N/A,,Light Drizzle,230,2013-02-26 22:15:00
5:35 PM,47.1,40.1,77,29.59,10.0,WSW,19.6,25.3,N/A,Rain,Light Rain,240,2013-02-26 22:35:00
5:55 PM,45.9,39.7,79,29.60,10.0,SW,11.5,19.6,N/A,,Overcast,230,2013-02-26 22:55:00
6:15 PM,45.7,38.5,76,29.62,10.0,SW,10.4,-,N/A,,Overcast,230,2013-02-26 23:15:00
6:35 PM,45.5,38.3,76,29.62,10.0,WSW,13.8,18.4,N/A,,Overcast,240,2013-02-26 23:35:00
6:55 PM,45.7,36.9,71,29.62,10.0,WSW,11.5,-,N/A,,Overcast,240,2013-02-26 23:55:00
7:15 PM,45.5,36.1,70,29.63,10.0,WSW,12.7,16.1,N/A,,Overcast,240,2013-02-27 00:15:00
7:35 PM,45.5,36.3,70,29.63,10.0,SW,9.2,17.3,N/A,,Overcast,230,2013-02-27 00:35:00
7:55 PM,45.0,36.3,72,29.65,10.0,WSW,12.7,20.7,N/A,,Overcast,240,2013-02-27 00:55:00
8:15 PM,44.2,35.4,71,29.66,10.0,WSW,11.5,20.7,N/A,,Overcast,240,2013-02-27 01:15:00
8:35 PM,43.2,33.8,70,29.67,10.0,WSW,15.0,25.3,N/A,,Overcast,250,2013-02-27 01:35:00
8:55 PM,43.0,32.2,66,29.68,10.0,SW,9.2,-,N/A,,Overcast,230,2013-02-27 01:55:00
9:15 PM,42.6,32.2,67,29.69,10.0,WSW,6.9,-,N/A,,Overcast,240,2013-02-27 02:15:00
9:35 PM,42.1,32.2,68,29.69,10.0,SW,5.8,-,N/A,,Overcast,230,2013-02-27 02:35:00
9:55 PM,41.9,32.5,69,29.69,10.0,SW,10.4,-,N/A,,Overcast,230,2013-02-27 02:55:00
10:15 PM,41.9,32.9,70,29.70,10.0,SW,12.7,17.3,N/A,,Overcast,230,2013-02-27 03:15:00
10:35 PM,40.5,34.2,78,29.70,10.0,WSW,16.1,-,N/A,,Drizzle,240,2013-02-27 03:35:00
10:55 PM,39.2,35.1,85,29.70,7.0,West,11.5,-,N/A,Rain,Rain,260,2013-02-27 03:55:00
11:15 PM,38.5,34.9,87,29.71,10.0,WSW,9.2,17.3,N/A,,Overcast,240,2013-02-27 04:15:00
11:35 PM,38.5,34.7,86,29.71,10.0,SW,8.1,-,N/A,,Overcast,220,2013-02-27 04:35:00
11:55 PM,38.5,34.3,85,29.71,10.0,SSW,5.8,-,N/A,,Overcast,200,2013-02-27 04:55:00